Time;durP1;ratioP1;P1;durP2;ratioP2;P2;SDS_P1;SDS_P2;PMS_P1;PMS_P2;Temp;Humidity;BMP_temperature;BMP_pressure;BME280_temperature;BME280_humidity;BME280_pressure;Samples;Min_cycle;Max_cycle;Signal;HPM_P1;HPM_P2
2024/03/25 00:00:31;;;;;;;72.68;18.00;;;;;;;6.81;100.00;96936.88;4947335;28;20035;-61
2024/03/25 00:02:56;;;;;;;52.17;14.23;;;;;;;6.79;100.00;96931.72;4949996;28;20022;-60
2024/03/25 00:05:25;;;;;;;51.88;11.73;;;;;;;6.63;100.00;96939.56;4949596;28;20451;-58
2024/03/25 00:07:51;;;;;;;69.37;15.93;;;;;;;6.61;100.00;96930.94;4949623;28;20015;-61
2024/03/25 00:10:17;;;;;;;54.05;10.40;;;;;;;6.83;100.00;96937.75;4948041;28;20033;-58
2024/03/25 00:12:43;;;;;;;55.03;15.13;;;;;;;6.98;100.00;96935.06;4949505;28;20065;-59
2024/03/25 00:15:09;;;;;;;37.05;10.60;;;;;;;6.59;100.00;96937.84;4949314;28;20106;-59
2024/03/25 00:17:34;;;;;;;61.92;30.25;;;;;;;6.77;100.00;96934.34;4947919;28;20134;-61
2024/03/25 00:19:59;;;;;;;78.00;16.38;;;;;;;6.84;100.00;96942.91;4947564;28;20022;-58
2024/03/25 00:22:25;;;;;;;52.83;26.88;;;;;;;6.81;100.00;96936.88;4948495;28;20259;-58
2024/03/25 00:24:51;;;;;;;68.65;19.75;;;;;;;6.80;100.00;96938.63;4947920;28;20022;-60
2024/03/25 00:27:17;;;;;;;82.07;42.28;;;;;;;6.85;100.00;96938.59;4947583;28;20698;-60
2024/03/25 00:29:44;;;;;;;56.05;20.17;;;;;;;6.85;100.00;96936.00;4948746;28;20031;-60
2024/03/25 00:32:10;;;;;;;52.03;10.70;;;;;;;6.75;100.00;96933.47;4948863;28;20043;-61
2024/03/25 00:34:35;;;;;;;47.35;12.07;;;;;;;6.86;100.00;96933.41;4948634;28;20350;-61
2024/03/25 00:37:01;;;;;;;48.35;16.52;;;;;;;6.70;100.00;96942.09;4947307;28;20566;-58
2024/03/25 00:39:27;;;;;;;52.25;16.70;;;;;;;6.86;100.00;96941.16;4948862;28;20019;-59
2024/03/25 00:41:53;;;;;;;96.20;38.88;;;;;;;7.09;100.00;96942.75;4945779;28;20554;-58
2024/03/25 00:44:19;;;;;;;65.13;28.35;;;;;;;6.74;100.00;96941.22;4949343;28;20737;-59
2024/03/25 00:46:45;;;;;;;90.68;52.17;;;;;;;6.74;100.00;96938.66;4949555;28;20125;-60
2024/03/25 00:49:11;;;;;;;52.88;15.50;;;;;;;6.79;100.00;96934.31;4946233;28;20471;-61
2024/03/25 00:51:37;;;;;;;36.25;10.63;;;;;;;6.66;100.00;96933.53;4947633;28;20077;-60
2024/03/25 00:54:03;;;;;;;70.55;19.98;;;;;;;6.76;100.00;96939.50;4949610;28;20025;-58
2024/03/25 00:56:31;;;;;;;52.13;15.82;;;;;;;6.89;100.00;96936.00;4948824;28;20055;-59
2024/03/25 00:59:02;;;;;;;64.47;19.55;;;;;;;6.96;100.00;96941.09;4947724;28;20107;-59
2024/03/25 01:01:29;;;;;;;59.05;11.88;;;;;;;6.56;100.00;96937.88;4946426;28;20668;-62
2024/03/25 01:03:55;;;;;;;71.55;14.02;;;;;;;6.76;100.00;96935.19;4949679;28;20023;-60
2024/03/25 01:06:20;;;;;;;53.38;17.80;;;;;;;6.90;100.00;96929.06;4947323;28;20043;-61
2024/03/25 01:08:46;;;;;;;55.92;9.52;;;;;;;6.87;100.00;96936.88;4947999;28;20078;-59
2024/03/25 01:11:11;;;;;;;52.88;12.20;;;;;;;6.69;100.00;96937.81;4946921;28;20053;-58
2024/03/25 01:13:36;;;;;;;42.60;17.27;;;;;;;6.96;100.00;96941.09;4948750;28;20031;-60
2024/03/25 01:16:02;;;;;;;63.03;13.68;;;;;;;6.85;100.00;96943.75;4949999;28;20041;-59
2024/03/25 01:18:27;;;;;;;57.05;13.55;;;;;;;6.81;100.00;96932.59;4950981;28;20035;-61
2024/03/25 01:20:52;;;;;;;65.93;18.52;;;;;;;6.83;100.00;96930.00;4948438;28;20098;-63
2024/03/25 01:23:17;;;;;;;46.35;11.75;;;;;;;6.77;100.00;96933.47;4949270;28;20028;-61
2024/03/25 01:25:43;;;;;;;46.35;12.15;;;;;;;6.75;100.00;96936.06;4949004;28;20070;-61
2024/03/25 01:28:08;;;;;;;59.72;14.18;;;;;;;6.79;100.00;96938.63;4948239;28;20166;-59
2024/03/25 01:30:35;;;;;;;74.35;23.08;;;;;;;6.87;100.00;96936.88;4947670;28;20041;-59
2024/03/25 01:33:01;;;;;;;59.85;11.98;;;;;;;6.71;100.00;96930.91;4948739;28;20011;-60
2024/03/25 01:35:26;;;;;;;56.78;11.68;;;;;;;6.93;100.00;96941.13;4945312;28;20089;-62
2024/03/25 01:37:53;;;;;;;52.75;12.35;;;;;;;6.82;100.00;96938.59;4947454;28;20087;-58
2024/03/25 01:40:18;;;;;;;52.90;14.50;;;;;;;6.70;100.00;96939.53;4949270;28;20027;-58
2024/03/25 01:42:44;;;;;;;56.22;12.07;;;;;;;6.62;100.00;96935.28;4951158;28;20022;-59
2024/03/25 01:45:10;;;;;;;38.30;10.02;;;;;;;7.07;100.00;96935.88;4950795;28;20035;-61
2024/03/25 01:47:38;;;;;;;51.63;16.63;;;;;;;6.79;100.00;96936.06;4950388;28;20427;-60
2024/03/25 01:50:03;;;;;;;79.30;17.70;;;;;;;6.86;100.00;96930.81;4950335;28;20495;-59
2024/03/25 01:52:30;;;;;;;51.40;12.30;;;;;;;6.88;100.00;96944.63;4949296;28;20039;-61
2024/03/25 01:54:56;;;;;;;179.90;130.27;;;;;;;6.59;100.00;96937.84;4950925;28;20267;-60
2024/03/25 01:57:21;;;;;;;64.53;16.20;;;;;;;6.89;100.00;96943.75;4982618;28;20043;-58
2024/03/25 01:59:47;;;;;;;55.78;12.70;;;;;;;6.88;100.00;96952.38;4953501;28;20082;-59
2024/03/25 02:02:13;;;;;;;45.90;14.25;;;;;;;6.90;100.00;96945.47;4952371;28;20045;-62
2024/03/25 02:04:42;;;;;;;60.03;15.63;;;;;;;6.87;100.00;96953.22;4978898;28;20035;-59
2024/03/25 02:07:08;;;;;;;51.78;12.50;;;;;;;6.74;100.00;96948.97;4949027;28;20039;-59
2024/03/25 02:09:35;;;;;;;60.20;16.33;;;;;;;6.59;100.00;96955.94;4950527;28;20031;-60
2024/03/25 02:12:01;;;;;;;64.22;14.38;;;;;;;6.66;100.00;96951.59;4951256;28;20558;-59
2024/03/25 02:14:27;;;;;;;63.65;21.92;;;;;;;6.68;100.00;96954.19;4951347;28;20518;-60
2024/03/25 02:16:53;;;;;;;62.28;11.15;;;;;;;6.29;100.00;96959.47;4950595;28;20039;-60
2024/03/25 02:19:18;;;;;;;44.10;15.82;;;;;;;6.68;100.00;96961.94;4950234;28;20411;-59
2024/03/25 02:21:44;;;;;;;84.15;50.92;;;;;;;6.66;100.00;96961.94;4950425;28;20126;-60
2024/03/25 02:24:11;;;;;;;57.60;10.68;;;;;;;6.64;100.00;96956.78;4952960;28;20045;-60
2024/03/25 02:26:37;;;;;;;54.78;17.88;;;;;;;6.79;100.00;96952.41;4949172;28;20198;-61
2024/03/25 02:29:02;;;;;;;67.00;10.63;;;;;;;6.70;100.00;96960.19;4949716;28;20468;-59
2024/03/25 02:31:28;;;;;;;59.90;14.02;;;;;;;6.85;100.00;96959.25;4950240;28;20035;-59
2024/03/25 02:33:53;;;;;;;51.28;13.05;;;;;;;6.77;100.00;96962.78;4949764;28;20050;-62
2024/03/25 02:36:18;;;;;;;56.13;14.23;;;;;;;6.85;100.00;96960.13;4950991;28;20594;-59
2024/03/25 02:38:44;;;;;;;62.25;12.70;;;;;;;6.84;100.00;96958.44;4951436;28;20035;-61
2024/03/25 02:41:09;;;;;;;74.85;12.40;;;;;;;6.79;100.00;96969.66;4948785;28;20583;-60
2024/03/25 02:43:35;;;;;;;52.83;13.10;;;;;;;6.67;100.00;96955.03;4954956;28;20061;-61
2024/03/25 02:46:00;;;;;;;85.20;15.90;;;;;;;6.63;100.00;96961.94;4948795;28;20578;-61
2024/03/25 02:48:26;;;;;;;46.08;11.48;;;;;;;6.45;100.00;96960.28;4951422;28;20123;-59
2024/03/25 02:50:51;;;;;;;40.90;12.07;;;;;;;6.58;100.00;96956.81;4949155;28;20039;-59
2024/03/25 02:53:17;;;;;;;49.10;11.98;;;;;;;6.70;100.00;96957.63;4950095;28;20276;-61
2024/03/25 02:55:42;;;;;;;41.55;13.60;;;;;;;6.97;100.00;96964.38;4950693;28;20035;-60
2024/03/25 02:58:07;;;;;;;59.40;14.90;;;;;;;6.99;100.00;96962.66;4950030;28;20058;-59
2024/03/25 03:00:33;;;;;;;72.43;14.38;;;;;;;6.50;100.00;96969.75;4951915;28;20385;-59
2024/03/25 03:02:58;;;;;;;52.85;16.88;;;;;;;6.85;100.00;96973.06;4949462;28;20073;-61
2024/03/25 03:05:23;;;;;;;54.22;12.23;;;;;;;6.60;100.00;96973.16;4950724;28;20561;-61
2024/03/25 03:07:48;;;;;;;41.97;9.68;;;;;;;6.74;100.00;96977.41;4950192;28;20388;-61
2024/03/25 03:10:15;;;;;;;48.08;10.32;;;;;;;6.80;100.00;96976.53;4949436;28;20585;-60
2024/03/25 03:12:41;;;;;;;57.70;9.75;;;;;;;6.57;100.00;96980.91;4949348;28;20041;-60
2024/03/25 03:15:07;;;;;;;75.20;12.57;;;;;;;6.94;100.00;96976.47;4947826;28;20030;-60
2024/03/25 03:17:32;;;;;;;50.72;13.07;;;;;;;6.83;100.00;96969.59;4951171;28;20877;-61
2024/03/25 03:19:57;;;;;;;73.38;13.95;;;;;;;6.83;100.00;96979.94;4950778;28;20135;-60
2024/03/25 03:22:23;;;;;;;56.75;12.90;;;;;;;6.85;100.00;96978.22;4978515;28;20046;-61
2024/03/25 03:24:48;;;;;;;47.30;11.40;;;;;;;6.92;100.00;96989.41;4951573;28;20039;-60
2024/03/25 03:27:13;;;;;;;53.20;12.88;;;;;;;7.23;100.00;96989.22;4948834;28;20046;-61
2024/03/25 03:29:38;;;;;;;45.55;11.98;;;;;;;7.06;100.00;96991.03;4948685;28;20439;-59
2024/03/25 03:32:04;;;;;;;74.45;12.73;;;;;;;6.82;100.00;97001.50;4947774;28;20463;-63
2024/03/25 03:34:29;;;;;;;51.35;13.25;;;;;;;6.83;100.00;96997.19;4950321;28;20440;-59
2024/03/25 03:36:54;;;;;;;52.30;9.38;;;;;;;6.85;100.00;96996.31;4951196;28;20114;-61
2024/03/25 03:39:20;;;;;;;41.05;9.93;;;;;;;6.71;100.00;96992.91;4949871;28;20027;-62
2024/03/25 03:41:45;;;;;;;63.60;11.80;;;;;;;6.82;100.00;97001.50;4948555;28;20042;-59
2024/03/25 03:44:12;;;;;;;73.70;11.07;;;;;;;6.75;100.00;96999.78;4949954;28;20027;-60
2024/03/25 03:46:37;;;;;;;52.15;13.30;;;;;;;7.00;100.00;97004.84;4948565;28;20043;-61
2024/03/25 03:49:02;;;;;;;83.00;12.38;;;;;;;6.88;100.00;97005.78;4950177;28;20033;-60
2024/03/25 03:51:28;;;;;;;48.85;11.82;;;;;;;6.81;100.00;97004.94;4948554;28;20043;-60
2024/03/25 03:53:53;;;;;;;51.20;9.40;;;;;;;6.54;100.00;97000.75;4951251;28;20090;-62
2024/03/25 03:56:18;;;;;;;48.42;10.13;;;;;;;6.75;100.00;97007.53;4950215;28;20338;-62
2024/03/25 03:58:44;;;;;;;51.78;11.10;;;;;;;6.99;100.00;97008.31;4948962;28;20085;-59
2024/03/25 04:01:17;;;;;;;64.03;11.48;;;;;;;6.73;100.00;97009.28;4949119;28;20046;-59
2024/03/25 04:03:42;;;;;;;53.17;11.02;;;;;;;6.68;100.00;97016.22;4947525;28;20122;-60
2024/03/25 04:06:10;;;;;;;76.85;13.82;;;;;;;6.78;100.00;97017.88;4950057;28;20102;-58
2024/03/25 04:08:35;;;;;;;50.22;9.18;;;;;;;6.80;100.00;97021.34;4949945;28;20134;-61
2024/03/25 04:11:02;;;;;;;67.05;13.13;;;;;;;6.86;100.00;97023.00;4947669;28;20647;-62
2024/03/25 04:13:27;;;;;;;50.85;9.40;;;;;;;6.43;100.00;97017.13;4947992;28;20019;-60
2024/03/25 04:15:52;;;;;;;56.25;14.25;;;;;;;6.76;100.00;97022.22;4948921;28;20094;-59
2024/03/25 04:18:19;;;;;;;49.28;11.07;;;;;;;6.95;100.00;97027.28;4948113;28;20023;-60
2024/03/25 04:20:44;;;;;;;47.72;9.55;;;;;;;6.64;100.00;97028.25;4946227;28;20106;-61
2024/03/25 04:23:09;;;;;;;73.47;10.82;;;;;;;7.18;100.00;97024.59;4947288;28;20356;-63
2024/03/25 04:25:38;;;;;;;67.22;29.40;;;;;;;6.69;100.00;97030.84;4948330;28;20138;-61
2024/03/25 04:28:07;;;;;;;68.25;12.52;;;;;;;6.64;100.00;97028.25;4948810;28;20712;-59
2024/03/25 04:30:33;;;;;;;68.10;10.77;;;;;;;6.60;100.00;97024.81;4948609;28;20046;-62
2024/03/25 04:32:59;;;;;;;59.17;18.20;;;;;;;6.50;100.00;97034.31;4948007;28;20681;-61
2024/03/25 04:35:24;;;;;;;46.13;11.00;;;;;;;6.26;100.00;97032.66;4946990;28;20290;-60
2024/03/25 04:37:49;;;;;;;44.75;14.93;;;;;;;6.23;100.00;97033.53;4954620;28;20019;-58
2024/03/25 04:40:18;;;;;;;46.47;11.10;;;;;;;6.31;100.00;97038.66;4949546;28;20051;-60
2024/03/25 04:42:44;;;;;;;54.42;12.05;;;;;;;6.34;100.00;97041.25;4946733;28;20243;-61
2024/03/25 04:45:09;;;;;;;70.38;14.90;;;;;;;6.41;100.00;97039.50;4948196;28;20042;-59
2024/03/25 04:47:34;;;;;;;63.08;13.55;;;;;;;6.58;100.00;97044.66;4949820;28;20027;-59
2024/03/25 04:50:00;;;;;;;71.60;13.90;;;;;;;6.29;100.00;97043.00;4947686;28;20448;-61
2024/03/25 04:52:25;;;;;;;54.28;9.65;;;;;;;6.37;100.00;97046.41;4948813;28;20031;-61
2024/03/25 04:54:51;;;;;;;56.58;10.43;;;;;;;6.06;100.00;97043.88;4949590;28;20071;-59
2024/03/25 04:57:16;;;;;;;58.67;12.48;;;;;;;6.57;100.00;97042.91;4947067;28;20071;-60
2024/03/25 04:59:41;;;;;;;44.30;11.18;;;;;;;6.60;100.00;97049.78;4946015;28;20024;-63
2024/03/25 05:02:08;;;;;;;34.72;8.40;;;;;;;6.50;100.00;97051.56;4946575;28;20045;-58
2024/03/25 05:04:33;;;;;;;65.07;13.52;;;;;;;6.30;100.00;97055.03;4947230;28;20033;-60
2024/03/25 05:06:58;;;;;;;65.38;11.23;;;;;;;6.29;100.00;97053.31;4947525;28;20031;-60
2024/03/25 05:09:24;;;;;;;47.53;12.57;;;;;;;6.33;100.00;97049.88;4946683;28;20020;-60
2024/03/25 05:11:49;;;;;;;66.85;13.10;;;;;;;6.49;100.00;97048.13;4945740;28;20027;-61
2024/03/25 05:14:15;;;;;;;60.88;11.07;;;;;;;6.19;100.00;97049.88;4950298;28;20077;-61
2024/03/25 05:16:40;;;;;;;56.65;13.32;;;;;;;6.16;100.00;97051.63;4952180;28;20445;-59
2024/03/25 05:19:06;;;;;;;71.07;11.65;;;;;;;6.33;100.00;97062.78;4952007;28;20057;-61
2024/03/25 05:21:31;;;;;;;51.22;9.15;;;;;;;6.28;100.00;97069.69;4952007;28;20404;-60
2024/03/25 05:23:57;;;;;;;44.20;11.27;;;;;;;6.55;100.00;97070.50;4951959;28;20022;-59
2024/03/25 05:26:22;;;;;;;67.63;25.23;;;;;;;6.41;100.00;97072.22;4951796;28;20027;-60
2024/03/25 05:28:56;;;;;;;50.00;12.80;;;;;;;6.38;100.00;97071.38;4952409;28;20085;-59
2024/03/25 05:31:21;;;;;;;53.20;13.90;;;;;;;6.47;100.00;97075.69;4951011;28;20028;-59
2024/03/25 05:33:47;;;;;;;57.00;10.93;;;;;;;6.08;100.00;97075.69;4952715;28;20443;-61
2024/03/25 05:36:13;;;;;;;62.30;11.32;;;;;;;5.97;100.00;97070.50;4950799;28;20432;-60
2024/03/25 05:38:38;;;;;;;58.25;9.80;;;;;;;5.80;100.00;97074.81;4952858;28;20078;-61
2024/03/25 05:41:04;;;;;;;64.63;11.95;;;;;;;5.97;100.00;97082.53;4948435;28;20030;-59
2024/03/25 05:43:29;;;;;;;48.65;11.85;;;;;;;6.37;100.00;97092.91;4950616;28;20514;-60
2024/03/25 05:45:55;;;;;;;53.85;10.93;;;;;;;6.17;100.00;97085.19;4950771;28;20119;-59
2024/03/25 05:48:22;;;;;;;54.45;12.32;;;;;;;6.21;100.00;97083.44;4952568;28;20031;-61
2024/03/25 05:51:00;;;;;;;53.53;10.60;;;;;;;5.81;100.00;97081.69;4950480;28;20586;-61
2024/03/25 05:53:27;;;;;;;54.58;9.93;;;;;;;6.17;100.00;97094.63;4950892;28;20023;-60
2024/03/25 05:55:52;;;;;;;45.70;9.85;;;;;;;6.31;100.00;97085.16;4949828;28;20042;-61
2024/03/25 05:58:18;;;;;;;76.93;13.70;;;;;;;7.26;100.00;97092.66;4949449;28;20047;-61
2024/03/25 06:00:43;;;;;;;28.45;9.77;;;;;;;7.83;100.00;97095.78;4954095;28;20483;-60
2024/03/25 06:03:08;;;;;;;79.13;15.70;;;;;;;7.72;100.00;97093.25;4950107;28;20038;-63
2024/03/25 06:05:34;;;;;;;49.63;11.80;;;;;;;7.35;100.00;97094.31;4950863;28;20073;-59
2024/03/25 06:07:59;;;;;;;50.50;11.48;;;;;;;8.10;100.00;97103.38;4951167;28;20077;-62
2024/03/25 06:10:24;;;;;;;60.50;12.07;;;;;;;7.61;100.00;97110.59;4948426;28;20054;-63
2024/03/25 06:12:50;;;;;;;49.25;10.68;;;;;;;7.23;100.00;97112.50;4950733;28;20147;-61
2024/03/25 06:15:15;;;;;;;74.60;11.48;;;;;;;7.67;100.00;97106.25;4956458;28;20515;-61
2024/03/25 06:17:40;;;;;;;48.35;11.80;;;;;;;7.93;100.00;97102.63;4950215;28;20488;-63
2024/03/25 06:20:06;;;;;;;80.68;13.13;;;;;;;7.72;100.00;97108.78;4947123;28;20380;-61
2024/03/25 06:22:31;;;;;;;50.78;12.05;;;;;;;7.35;100.00;97104.69;4950650;28;20061;-59
2024/03/25 06:24:57;;;;;;;55.63;14.27;;;;;;;8.59;100.00;97104.72;4951084;28;20039;-62
2024/03/25 06:27:22;;;;;;;68.60;21.05;;;;;;;8.48;100.00;97104.78;4946652;28;20043;-61
2024/03/25 06:29:48;;;;;;;41.78;14.10;;;;;;;8.61;100.00;97112.47;4950566;28;20126;-62
2024/03/25 06:35:00;;;;;;;38.22;9.48;;;;;;;8.15;100.00;97111.97;4948874;28;20659;-60
2024/03/25 06:37:25;;;;;;;53.38;11.63;;;;;;;8.44;100.00;97103.97;4948707;28;20435;-63
2024/03/25 06:39:51;;;;;;;45.55;13.90;;;;;;;8.72;100.00;97111.50;4949025;28;20484;-61
2024/03/25 06:42:16;;;;;;;76.15;13.35;;;;;;;9.04;100.00;97118.94;4949540;28;20445;-61
2024/03/25 06:44:43;;;;;;;53.20;11.18;;;;;;;9.52;100.00;97123.56;4950820;28;20045;-60
2024/03/25 06:47:08;;;;;;;74.90;14.20;;;;;;;10.47;100.00;97142.97;4948623;28;20038;-63
2024/03/25 06:49:33;;;;;;;39.90;10.02;;;;;;;13.20;100.00;97139.69;4949858;28;20019;-64
2024/03/25 06:51:59;;;;;;;38.72;8.95;;;;;;;15.55;100.00;97164.59;4950801;28;20447;-62
2024/03/25 06:54:24;;;;;;;37.63;10.48;;;;;;;17.35;100.00;97156.59;4948508;28;20046;-59
2024/03/25 06:56:49;;;;;;;44.42;9.73;;;;;;;15.54;100.00;97113.06;4951502;28;20435;-62
2024/03/25 06:59:15;;;;;;;56.67;11.05;;;;;;;14.82;100.00;97103.38;4948673;28;20107;-61
2024/03/25 07:01:40;;;;;;;37.53;9.20;;;;;;;13.29;100.00;97107.25;4948972;28;20126;-60
2024/03/25 07:04:05;;;;;;;54.08;9.90;;;;;;;12.40;100.00;97104.34;4947542;28;20123;-62
2024/03/25 07:06:31;;;;;;;43.42;9.38;;;;;;;11.45;100.00;97102.16;4949571;28;20488;-61
2024/03/25 07:08:56;;;;;;;51.95;9.70;;;;;;;10.88;100.00;97100.69;4948451;28;20058;-63
2024/03/25 07:11:21;;;;;;;30.48;8.95;;;;;;;11.15;100.00;97112.28;4948880;28;20031;-62
2024/03/25 07:13:47;;;;;;;41.35;9.45;;;;;;;11.00;100.00;97113.44;4949399;28;20031;-62
2024/03/25 07:16:12;;;;;;;72.55;11.45;;;;;;;10.98;100.00;97107.41;4946860;28;20078;-63
2024/03/25 07:18:37;;;;;;;43.35;9.35;;;;;;;11.30;100.00;97103.31;4949333;28;20097;-63
2024/03/25 07:21:03;;;;;;;35.63;9.35;;;;;;;11.39;100.00;97111.84;4948646;28;20633;-64
2024/03/25 07:23:28;;;;;;;50.95;9.05;;;;;;;12.31;100.00;97100.22;4980438;28;20030;-65
2024/03/25 07:25:54;;;;;;;26.52;7.25;;;;;;;12.33;100.00;97106.25;4950430;28;20449;-65
2024/03/25 07:28:20;;;;;;;71.35;11.18;;;;;;;13.25;100.00;97105.63;4947386;28;20058;-62
2024/03/25 07:30:45;;;;;;;42.58;9.27;;;;;;;13.61;100.00;97108.09;4947970;28;20127;-62
2024/03/25 07:33:10;;;;;;;56.60;9.32;;;;;;;14.10;87.42;97104.84;4949218;28;20338;-60
2024/03/25 07:35:36;;;;;;;27.92;7.15;;;;;;;17.92;61.96;97097.03;4947673;28;20273;-61
2024/03/25 07:38:03;;;;;;;41.90;8.85;;;;;;;16.59;61.65;97094.97;4948254;28;20023;-63
2024/03/25 07:40:28;;;;;;;42.03;8.68;;;;;;;17.71;55.62;97086.63;4946415;28;20123;-60
2024/03/25 07:42:54;;;;;;;37.63;8.38;;;;;;;17.47;50.72;97086.84;4948901;28;20127;-64
2024/03/25 07:45:19;;;;;;;57.83;10.77;;;;;;;18.27;48.42;97091.03;4946606;28;20085;-64
2024/03/25 07:47:44;;;;;;;31.60;7.15;;;;;;;19.06;45.75;97089.75;4947191;28;20031;-61
2024/03/25 07:50:10;;;;;;;49.65;7.40;;;;;;;22.28;38.38;97089.66;4947202;28;20062;-63
2024/03/25 07:52:40;;;;;;;40.47;7.47;;;;;;;23.32;39.36;97092.47;4947278;28;20030;-63
2024/03/25 07:55:06;;;;;;;30.73;8.15;;;;;;;20.74;38.51;97095.50;4948164;28;20487;-63
2024/03/25 07:57:32;;;;;;;46.95;11.77;;;;;;;17.51;45.41;97109.44;4947809;28;20423;-64
2024/03/25 07:59:57;;;;;;;32.33;6.88;;;;;;;19.06;45.44;97108.19;4949087;28;20023;-64
2024/03/25 08:02:22;;;;;;;45.03;7.47;;;;;;;20.53;39.55;97102.91;4947654;28;20538;-63
2024/03/25 08:04:48;;;;;;;31.27;6.60;;;;;;;21.53;39.17;97099.66;4947537;28;20340;-62
2024/03/25 08:07:13;;;;;;;53.22;8.35;;;;;;;20.53;39.59;97105.53;4947671;28;20126;-64
2024/03/25 08:09:38;;;;;;;29.00;6.43;;;;;;;21.42;37.57;97105.59;4947624;28;20109;-60
2024/03/25 08:12:04;;;;;;;36.10;8.95;;;;;;;19.96;39.07;97105.16;4946490;28;20042;-61
2024/03/25 08:14:29;;;;;;;36.45;6.82;;;;;;;20.61;39.69;97108.59;4948449;28;20021;-62
2024/03/25 08:16:55;;;;;;;25.63;5.88;;;;;;;21.40;37.97;97108.34;4947992;28;20122;-61
2024/03/25 08:19:20;;;;;;;52.25;7.72;;;;;;;21.52;36.75;97113.81;4945971;28;20296;-62
2024/03/25 08:21:45;;;;;;;30.55;6.13;;;;;;;19.71;40.17;97121.50;4948832;28;20105;-64
2024/03/25 08:24:11;;;;;;;47.17;7.68;;;;;;;23.65;35.89;97110.47;4948373;28;20138;-61
2024/03/25 08:26:36;;;;;;;46.38;7.65;;;;;;;23.54;35.68;97113.06;4943861;28;20550;-64
2024/03/25 08:29:01;;;;;;;41.53;6.93;;;;;;;25.06;32.80;97106.47;4945659;28;20087;-66
2024/03/25 08:31:28;;;;;;;36.38;6.28;;;;;;;22.34;35.09;97107.81;4944888;28;20043;-64
2024/03/25 08:33:53;;;;;;;32.38;6.15;;;;;;;26.13;31.58;97088.41;4944938;28;20073;-63
2024/03/25 08:36:18;;;;;;;46.78;7.22;;;;;;;22.81;34.42;97104.75;4943052;28;20055;-63
2024/03/25 08:38:44;;;;;;;30.23;6.00;;;;;;;20.62;37.21;97097.06;4943198;28;20564;-63
2024/03/25 08:41:09;;;;;;;40.58;6.85;;;;;;;17.42;41.80;97107.22;4942885;28;20067;-63
2024/03/25 08:43:35;;;;;;;33.85;6.40;;;;;;;15.59;44.56;97122.47;4945759;28;20047;-62
2024/03/25 08:46:00;;;;;;;38.90;7.55;;;;;;;14.16;49.14;97127.34;4944991;28;20094;-64
2024/03/25 08:48:25;;;;;;;55.53;8.23;;;;;;;14.55;55.90;97124.31;4943706;28;20118;-66
2024/03/25 08:50:51;;;;;;;44.30;6.82;;;;;;;17.50;46.20;97117.38;4944036;28;20133;-65
2024/03/25 08:53:16;;;;;;;48.97;7.15;;;;;;;16.30;46.74;97115.44;4944711;28;20030;-64
2024/03/25 08:55:48;;;;;;;48.10;7.25;;;;;;;15.41;49.60;97124.03;4943824;28;20503;-63
2024/03/25 08:58:14;;;;;;;;;;;;;;;14.17;54.41;97122.06;4944417;28;20054;-65
2024/03/25 09:00:39;;;;;;;45.67;8.23;;;;;;;14.22;58.87;97119.31;4944676;28;20217;-65
2024/03/25 09:03:05;;;;;;;46.50;7.30;;;;;;;14.74;50.45;97115.88;4944446;28;20042;-65
2024/03/25 09:05:30;;;;;;;46.15;7.88;;;;;;;13.99;54.38;97120.03;4943791;28;20062;-64
2024/03/25 09:07:58;;;;;;;64.97;12.40;;;;;;;17.11;47.31;97111.22;4946341;28;20049;-61
2024/03/25 09:13:08;;;;;;;41.72;6.75;;;;;;;22.33;37.16;97098.13;4944006;28;20034;-64
2024/03/25 09:15:34;;;;;;;50.08;7.03;;;;;;;20.67;36.27;97091.50;4944009;28;20031;-64
2024/03/25 09:18:00;;;;;;;35.38;5.68;;;;;;;16.92;40.27;97101.47;4945570;28;20410;-63
2024/03/25 09:20:26;;;;;;;64.05;8.18;;;;;;;16.40;42.04;97106.25;4942902;28;20487;-65
2024/03/25 09:22:52;;;;;;;42.83;6.75;;;;;;;15.62;44.49;97109.25;4943586;28;20023;-68
2024/03/25 09:25:18;;;;;;;71.88;8.65;;;;;;;18.95;39.92;97099.94;4943543;28;20038;-64
2024/03/25 09:27:47;;;;;;;65.57;7.93;;;;;;;20.12;37.18;97096.41;4946385;28;20026;-62
2024/03/25 09:30:13;;;;;;;66.10;8.30;;;;;;;20.72;36.08;97101.81;4942853;28;20027;-64
2024/03/25 09:32:39;;;;;;;56.95;7.80;;;;;;;19.31;35.44;97098.13;4944300;28;20023;-66
2024/03/25 09:35:05;;;;;;;75.72;8.40;;;;;;;20.20;35.64;97095.97;4943014;28;20086;-62
2024/03/25 09:37:31;;;;;;;70.97;12.38;;;;;;;20.12;36.65;97091.97;4944635;28;20418;-61
2024/03/25 09:39:58;;;;;;;88.45;25.60;;;;;;;18.80;37.32;97094.53;4945086;28;20030;-63
2024/03/25 09:42:33;;;;;;;87.05;10.70;;;;;;;17.54;38.04;97106.66;4943392;28;20304;-63
2024/03/25 09:44:58;;;;;;;46.08;8.25;;;;;;;17.25;40.25;97107.97;4947024;28;20034;-64
2024/03/25 09:47:25;;;;;;;69.85;12.80;;;;;;;19.05;37.95;97093.31;4942228;28;20047;-61
2024/03/25 09:49:54;;;;;;;48.72;7.05;;;;;;;20.05;35.74;97093.28;4974439;28;20054;-60
2024/03/25 09:52:19;;;;;;;77.43;8.48;;;;;;;19.21;36.25;97095.13;4945541;28;20039;-61
2024/03/25 09:54:45;;;;;;;70.97;9.02;;;;;;;17.32;41.27;97096.28;4943094;28;20395;-62
2024/03/25 09:57:11;;;;;;;61.90;8.45;;;;;;;19.54;39.88;97088.97;4942303;28;20058;-61
2024/03/25 09:59:37;;;;;;;54.58;7.35;;;;;;;18.86;36.47;97088.13;4940856;28;20030;-61
2024/03/25 10:02:03;;;;;;;80.32;11.77;;;;;;;14.27;43.46;97093.88;4943292;28;20031;-60
2024/03/25 10:04:44;;;;;;;105.10;34.45;;;;;;;12.78;50.12;97092.97;4946884;28;20190;-61
2024/03/25 10:07:09;;;;;;;61.30;11.68;;;;;;;13.10;53.57;97094.69;4975722;28;20047;-60
2024/03/25 10:09:34;;;;;;;59.63;9.98;;;;;;;12.60;53.60;97093.44;4947530;28;20030;-59
2024/03/25 10:12:00;;;;;;;62.92;11.23;;;;;;;11.90;55.06;97089.00;4947744;28;20419;-60
2024/03/25 10:14:25;;;;;;;99.93;14.10;;;;;;;12.44;56.84;97086.88;4945208;28;20061;-62
2024/03/25 10:16:50;;;;;;;59.50;10.50;;;;;;;11.58;62.69;97084.50;4949174;28;20038;-61
2024/03/25 10:19:16;;;;;;;86.85;14.50;;;;;;;11.05;71.39;97084.72;4947135;28;20792;-59
2024/03/25 10:21:41;;;;;;;57.33;12.07;;;;;;;13.09;60.40;97087.78;4945429;28;20414;-62
2024/03/25 10:24:06;;;;;;;49.75;8.25;;;;;;;15.30;50.92;97073.78;4946027;28;20447;-62
2024/03/25 10:26:35;;;;;;;61.50;11.43;;;;;;;14.93;50.34;97068.97;4945824;28;20046;-62
2024/03/25 10:29:01;;;;;;;80.93;10.57;;;;;;;14.97;48.71;97070.56;4946297;28;20497;-60
2024/03/25 10:31:26;;;;;;;99.55;11.48;;;;;;;17.25;49.74;97060.66;4946052;28;20054;-63
2024/03/25 10:33:52;;;;;;;59.28;7.55;;;;;;;17.46;48.32;97058.84;4946656;28;20035;-63
2024/03/25 10:36:19;;;;;;;91.68;10.43;;;;;;;16.63;60.56;97053.72;4945626;28;20522;-63
2024/03/25 10:38:46;;;;;;;75.30;9.93;;;;;;;14.60;64.91;97068.38;4946667;28;20019;-62
2024/03/25 10:41:16;;;;;;;71.15;8.98;;;;;;;13.95;70.57;97064.38;4946823;28;20114;-63
2024/03/25 10:43:45;;;;;;;74.18;9.73;;;;;;;14.87;78.84;97058.72;4946007;28;20273;-63
2024/03/25 10:46:15;;;;;;;54.58;9.05;;;;;;;14.86;55.00;97061.41;4947135;28;20091;-62
2024/03/25 10:48:48;;;;;;;59.65;9.00;;;;;;;14.84;72.38;97048.38;4946754;28;20084;-61
2024/03/25 10:51:13;;;;;;;;;;;;;;;14.51;62.67;97046.00;4946159;28;20050;-63
2024/03/25 10:53:40;;;;;;;66.93;8.85;;;;;;;14.75;61.89;97048.66;4947602;28;19910;-65
2024/03/25 10:56:07;;;;;;;95.30;10.20;;;;;;;16.00;65.88;97035.28;4946213;28;20105;-66
2024/03/25 10:58:33;;;;;;;104.85;11.13;;;;;;;17.20;45.33;97015.38;4947150;28;20097;-65
2024/03/25 11:00:59;;;;;;;144.80;14.38;;;;;;;16.84;51.55;97028.28;4945984;28;20026;-62
2024/03/25 11:03:26;;;;;;;78.15;10.00;;;;;;;15.25;47.48;97024.19;4947376;28;20197;-63
2024/03/25 11:05:51;;;;;;;47.67;7.30;;;;;;;15.27;53.31;97018.88;4952573;28;20043;-64
2024/03/25 11:08:17;;;;;;;67.45;8.45;;;;;;;17.16;46.34;97017.28;4951360;28;20022;-63
2024/03/25 11:10:44;;;;;;;47.30;8.07;;;;;;;15.41;55.20;97019.25;4952046;28;20039;-63
2024/03/25 11:13:14;;;;;;;38.85;6.85;;;;;;;15.66;54.46;97031.34;4951349;28;20491;-63
2024/03/25 11:15:44;;;;;;;52.10;7.35;;;;;;;16.10;63.62;97016.53;4950691;28;20034;-63
2024/03/25 11:18:25;;;;;;;57.72;7.93;;;;;;;15.44;51.00;97015.63;4949395;28;20459;-63